sensor_id;sensor_type;location;lat;lon;timestamp;temperature;humidity
13251;DHT22;6692;50.710;7.180;2023-02-28T00:00:58;0.00;99.90
13251;DHT22;6692;50.710;7.180;2023-02-28T00:02:59;0.00;99.90
13251;DHT22;6692;50.710;7.180;2023-02-28T00:04:59;-0.10;99.90
13251;DHT22;6692;50.710;7.180;2023-02-28T00:07:00;-0.10;99.90
13251;DHT22;6692;50.710;7.180;2023-02-28T00:09:01;-0.10;99.90
13251;DHT22;6692;50.710;7.180;2023-02-28T00:11:03;-0.10;99.90
13251;DHT22;6692;50.710;7.180;2023-02-28T00:13:04;-0.10;99.90
13251;DHT22;6692;50.710;7.180;2023-02-28T00:15:05;-0.10;99.90
13251;DHT22;6692;50.710;7.180;2023-02-28T00:17:06;-0.10;99.90
13251;DHT22;6692;50.710;7.180;2023-02-28T00:19:07;-0.10;99.90
13251;DHT22;6692;50.710;7.180;2023-02-28T00:21:08;-0.10;99.90
13251;DHT22;6692;50.710;7.180;2023-02-28T00:23:09;-0.10;99.90
13251;DHT22;6692;50.710;7.180;2023-02-28T00:25:10;-0.20;99.90
13251;DHT22;6692;50.710;7.180;2023-02-28T00:27:10;-0.20;99.90
13251;DHT22;6692;50.710;7.180;2023-02-28T00:29:11;-0.20;99.90
13251;DHT22;6692;50.710;7.180;2023-02-28T00:31:11;-0.20;99.90
13251;DHT22;6692;50.710;7.180;2023-02-28T00:33:12;-0.20;99.90
13251;DHT22;6692;50.710;7.180;2023-02-28T00:35:13;-0.20;99.90
13251;DHT22;6692;50.710;7.180;2023-02-28T00:37:13;-0.20;99.90
13251;DHT22;6692;50.710;7.180;2023-02-28T00:39:15;-0.20;99.90
13251;DHT22;6692;50.710;7.180;2023-02-28T00:41:15;-0.20;99.90
13251;DHT22;6692;50.710;7.180;2023-02-28T00:43:16;-0.20;99.90
13251;DHT22;6692;50.710;7.180;2023-02-28T00:45:17;-0.30;99.90
13251;DHT22;6692;50.710;7.180;2023-02-28T00:47:18;-0.30;99.90
13251;DHT22;6692;50.710;7.180;2023-02-28T00:49:18;-0.20;99.90
13251;DHT22;6692;50.710;7.180;2023-02-28T00:51:20;-0.30;99.90
13251;DHT22;6692;50.710;7.180;2023-02-28T00:53:21;-0.30;99.90
13251;DHT22;6692;50.710;7.180;2023-02-28T00:55:22;-0.30;99.90
13251;DHT22;6692;50.710;7.180;2023-02-28T00:57:22;-0.30;99.90
13251;DHT22;6692;50.710;7.180;2023-02-28T00:59:23;-0.30;99.90
13251;DHT22;6692;50.710;7.180;2023-02-28T01:01:24;-0.30;99.90
13251;DHT22;6692;50.710;7.180;2023-02-28T01:03:25;-0.30;99.90
13251;DHT22;6692;50.710;7.180;2023-02-28T01:05:26;-0.30;99.90
13251;DHT22;6692;50.710;7.180;2023-02-28T01:07:26;-0.30;99.90
13251;DHT22;6692;50.710;7.180;2023-02-28T01:09:28;-0.30;99.90
13251;DHT22;6692;50.710;7.180;2023-02-28T01:11:29;-0.40;99.90
13251;DHT22;6692;50.710;7.180;2023-02-28T01:13:29;-0.30;99.90
13251;DHT22;6692;50.710;7.180;2023-02-28T01:15:30;-0.30;99.90
13251;DHT22;6692;50.710;7.180;2023-02-28T01:17:30;-0.30;99.90
13251;DHT22;6692;50.710;7.180;2023-02-28T01:19:31;-0.30;99.90
13251;DHT22;6692;50.710;7.180;2023-02-28T01:21:32;-0.30;99.90
13251;DHT22;6692;50.710;7.180;2023-02-28T01:23:32;-0.30;99.90
13251;DHT22;6692;50.710;7.180;2023-02-28T01:25:35;-0.30;99.90
13251;DHT22;6692;50.710;7.180;2023-02-28T01:27:35;-0.30;99.90
13251;DHT22;6692;50.710;7.180;2023-02-28T01:29:35;-0.40;99.90
13251;DHT22;6692;50.710;7.180;2023-02-28T01:31:36;-0.30;99.90
13251;DHT22;6692;50.710;7.180;2023-02-28T01:33:37;-0.30;99.90
13251;DHT22;6692;50.710;7.180;2023-02-28T01:35:37;-0.30;99.90
13251;DHT22;6692;50.710;7.180;2023-02-28T01:37:38;-0.30;99.90
13251;DHT22;6692;50.710;7.180;2023-02-28T01:39:39;-0.40;99.90
13251;DHT22;6692;50.710;7.180;2023-02-28T01:41:39;-0.40;99.90
13251;DHT22;6692;50.710;7.180;2023-02-28T01:43:59;-0.40;99.90
13251;DHT22;6692;50.710;7.180;2023-02-28T01:45:59;-0.40;99.90
13251;DHT22;6692;50.710;7.180;2023-02-28T01:48:03;-0.40;99.90
13251;DHT22;6692;50.710;7.180;2023-02-28T01:50:01;-0.50;99.90
13251;DHT22;6692;50.710;7.180;2023-02-28T01:52:01;-0.50;99.90
13251;DHT22;6692;50.710;7.180;2023-02-28T01:54:03;-0.50;99.90
13251;DHT22;6692;50.710;7.180;2023-02-28T01:56:04;-0.50;99.90
13251;DHT22;6692;50.710;7.180;2023-02-28T01:58:05;-0.50;99.90
13251;DHT22;6692;50.710;7.180;2023-02-28T02:00:10;-0.50;99.90
13251;DHT22;6692;50.710;7.180;2023-02-28T02:02:10;-0.50;99.90
13251;DHT22;6692;50.710;7.180;2023-02-28T02:04:11;-0.50;99.90
13251;DHT22;6692;50.710;7.180;2023-02-28T02:06:12;-0.50;99.90
13251;DHT22;6692;50.710;7.180;2023-02-28T02:08:17;-0.50;99.90
13251;DHT22;6692;50.710;7.180;2023-02-28T02:10:17;-0.50;99.90
13251;DHT22;6692;50.710;7.180;2023-02-28T02:12:25;-0.40;99.90
13251;DHT22;6692;50.710;7.180;2023-02-28T02:14:31;-0.40;99.90
13251;DHT22;6692;50.710;7.180;2023-02-28T02:16:44;-0.40;99.90
13251;DHT22;6692;50.710;7.180;2023-02-28T02:18:51;-0.40;99.90
13251;DHT22;6692;50.710;7.180;2023-02-28T02:23:14;-0.40;99.90
13251;DHT22;6692;50.710;7.180;2023-02-28T02:25:12;-0.50;99.90
13251;DHT22;6692;50.710;7.180;2023-02-28T02:27:23;-0.50;99.90
13251;DHT22;6692;50.710;7.180;2023-02-28T02:31:56;-0.60;99.90
13251;DHT22;6692;50.710;7.180;2023-02-28T02:36:33;-0.60;99.90
13251;DHT22;6692;50.710;7.180;2023-02-28T02:38:41;-0.60;99.90
13251;DHT22;6692;50.710;7.180;2023-02-28T02:40:47;-0.60;99.90
13251;DHT22;6692;50.710;7.180;2023-02-28T02:43:06;-0.60;99.90
13251;DHT22;6692;50.710;7.180;2023-02-28T02:45:07;-0.60;99.90
13251;DHT22;6692;50.710;7.180;2023-02-28T02:47:08;-0.60;99.90
13251;DHT22;6692;50.710;7.180;2023-02-28T02:49:09;-0.60;99.90
13251;DHT22;6692;50.710;7.180;2023-02-28T02:51:12;-0.60;99.90
13251;DHT22;6692;50.710;7.180;2023-02-28T02:53:11;-0.60;99.90
13251;DHT22;6692;50.710;7.180;2023-02-28T02:55:13;-0.60;99.90
13251;DHT22;6692;50.710;7.180;2023-02-28T02:57:15;-0.60;99.90
13251;DHT22;6692;50.710;7.180;2023-02-28T02:59:16;-0.60;99.90
13251;DHT22;6692;50.710;7.180;2023-02-28T03:01:20;-0.70;99.90
13251;DHT22;6692;50.710;7.180;2023-02-28T03:03:21;-0.60;99.90
13251;DHT22;6692;50.710;7.180;2023-02-28T03:05:24;-0.70;99.90
13251;DHT22;6692;50.710;7.180;2023-02-28T03:07:25;-0.70;99.90
13251;DHT22;6692;50.710;7.180;2023-02-28T03:09:26;-0.70;99.90
13251;DHT22;6692;50.710;7.180;2023-02-28T03:11:27;-0.70;99.90
13251;DHT22;6692;50.710;7.180;2023-02-28T03:13:36;-0.70;99.90
13251;DHT22;6692;50.710;7.180;2023-02-28T03:15:36;-0.70;99.90
13251;DHT22;6692;50.710;7.180;2023-02-28T03:17:50;-0.80;99.90
13251;DHT22;6692;50.710;7.180;2023-02-28T03:20:09;-0.80;99.90
13251;DHT22;6692;50.710;7.180;2023-02-28T03:22:22;-0.80;99.90
13251;DHT22;6692;50.710;7.180;2023-02-28T03:24:22;-0.80;99.90
13251;DHT22;6692;50.710;7.180;2023-02-28T03:26:21;-0.90;99.90
13251;DHT22;6692;50.710;7.180;2023-02-28T03:28:31;-0.90;99.90
13251;DHT22;6692;50.710;7.180;2023-02-28T03:30:43;-0.80;99.90
13251;DHT22;6692;50.710;7.180;2023-02-28T03:32:43;-0.90;99.90
13251;DHT22;6692;50.710;7.180;2023-02-28T03:34:46;-0.80;99.90
13251;DHT22;6692;50.710;7.180;2023-02-28T03:36:45;-0.80;99.90
13251;DHT22;6692;50.710;7.180;2023-02-28T03:38:51;-0.80;99.90
13251;DHT22;6692;50.710;7.180;2023-02-28T03:40:51;-0.90;99.90
13251;DHT22;6692;50.710;7.180;2023-02-28T03:42:52;-0.90;99.90
13251;DHT22;6692;50.710;7.180;2023-02-28T03:44:55;-0.80;99.90
13251;DHT22;6692;50.710;7.180;2023-02-28T03:46:58;-0.80;99.90
13251;DHT22;6692;50.710;7.180;2023-02-28T03:49:00;-0.90;99.90
13251;DHT22;6692;50.710;7.180;2023-02-28T03:50:59;-0.80;99.90
13251;DHT22;6692;50.710;7.180;2023-02-28T03:53:04;-0.90;99.90
13251;DHT22;6692;50.710;7.180;2023-02-28T03:55:03;-0.90;99.90
13251;DHT22;6692;50.710;7.180;2023-02-28T03:57:15;-0.90;99.90
13251;DHT22;6692;50.710;7.180;2023-02-28T03:59:14;-0.90;99.90
13251;DHT22;6692;50.710;7.180;2023-02-28T04:01:17;-0.90;99.90
13251;DHT22;6692;50.710;7.180;2023-02-28T04:03:16;-1.00;99.90
13251;DHT22;6692;50.710;7.180;2023-02-28T04:05:16;-0.90;99.90
13251;DHT22;6692;50.710;7.180;2023-02-28T04:07:17;-1.00;99.90
13251;DHT22;6692;50.710;7.180;2023-02-28T04:09:18;-1.00;99.90
13251;DHT22;6692;50.710;7.180;2023-02-28T04:11:34;-0.90;99.90
13251;DHT22;6692;50.710;7.180;2023-02-28T04:13:34;-1.00;99.90
13251;DHT22;6692;50.710;7.180;2023-02-28T04:15:34;-1.00;99.90
13251;DHT22;6692;50.710;7.180;2023-02-28T04:17:35;-0.90;99.90
13251;DHT22;6692;50.710;7.180;2023-02-28T04:19:36;-0.90;99.90
13251;DHT22;6692;50.710;7.180;2023-02-28T04:21:38;-1.00;99.90
13251;DHT22;6692;50.710;7.180;2023-02-28T04:23:39;-1.00;99.90
13251;DHT22;6692;50.710;7.180;2023-02-28T04:25:40;-1.00;99.90
13251;DHT22;6692;50.710;7.180;2023-02-28T04:27:40;-1.00;99.90
13251;DHT22;6692;50.710;7.180;2023-02-28T04:29:41;-1.10;99.90
13251;DHT22;6692;50.710;7.180;2023-02-28T04:31:42;-1.00;99.90
13251;DHT22;6692;50.710;7.180;2023-02-28T04:33:42;-1.00;99.90
13251;DHT22;6692;50.710;7.180;2023-02-28T04:35:43;-1.10;99.90
13251;DHT22;6692;50.710;7.180;2023-02-28T04:37:44;-1.10;99.90
13251;DHT22;6692;50.710;7.180;2023-02-28T04:39:44;-1.10;99.90
13251;DHT22;6692;50.710;7.180;2023-02-28T04:41:45;-1.10;99.90
13251;DHT22;6692;50.710;7.180;2023-02-28T04:43:45;-1.10;99.90
13251;DHT22;6692;50.710;7.180;2023-02-28T04:45:46;-1.20;99.90
13251;DHT22;6692;50.710;7.180;2023-02-28T04:47:47;-1.20;99.90
13251;DHT22;6692;50.710;7.180;2023-02-28T04:49:48;-1.20;99.90
13251;DHT22;6692;50.710;7.180;2023-02-28T04:51:49;-1.20;99.90
13251;DHT22;6692;50.710;7.180;2023-02-28T04:53:50;-1.20;99.90
13251;DHT22;6692;50.710;7.180;2023-02-28T04:55:51;-1.30;99.90
13251;DHT22;6692;50.710;7.180;2023-02-28T04:57:51;-1.20;99.90
13251;DHT22;6692;50.710;7.180;2023-02-28T04:59:53;-1.30;99.90
13251;DHT22;6692;50.710;7.180;2023-02-28T05:01:53;-1.30;99.90
13251;DHT22;6692;50.710;7.180;2023-02-28T05:03:55;-1.30;99.90
13251;DHT22;6692;50.710;7.180;2023-02-28T05:05:55;-1.40;99.90
13251;DHT22;6692;50.710;7.180;2023-02-28T05:07:57;-1.40;99.90
13251;DHT22;6692;50.710;7.180;2023-02-28T05:09:58;-1.40;99.90
13251;DHT22;6692;50.710;7.180;2023-02-28T05:11:59;-1.40;99.90
13251;DHT22;6692;50.710;7.180;2023-02-28T05:14:01;-1.40;99.90
13251;DHT22;6692;50.710;7.180;2023-02-28T05:16:02;-1.40;99.90
13251;DHT22;6692;50.710;7.180;2023-02-28T05:18:03;-1.50;99.90
13251;DHT22;6692;50.710;7.180;2023-02-28T05:20:04;-1.50;99.90
13251;DHT22;6692;50.710;7.180;2023-02-28T05:22:10;-1.50;99.90
13251;DHT22;6692;50.710;7.180;2023-02-28T05:24:09;-1.50;99.90
13251;DHT22;6692;50.710;7.180;2023-02-28T05:26:08;-1.50;99.90
13251;DHT22;6692;50.710;7.180;2023-02-28T05:28:10;-1.40;99.90
13251;DHT22;6692;50.710;7.180;2023-02-28T05:30:11;-1.40;99.90
13251;DHT22;6692;50.710;7.180;2023-02-28T05:32:12;-1.40;99.90
13251;DHT22;6692;50.710;7.180;2023-02-28T05:34:14;-1.50;99.90
13251;DHT22;6692;50.710;7.180;2023-02-28T05:36:14;-1.50;99.90
13251;DHT22;6692;50.710;7.180;2023-02-28T05:38:15;-1.50;99.90
13251;DHT22;6692;50.710;7.180;2023-02-28T05:40:16;-1.50;99.90
13251;DHT22;6692;50.710;7.180;2023-02-28T05:42:16;-1.50;99.90
13251;DHT22;6692;50.710;7.180;2023-02-28T05:44:17;-1.50;99.90
13251;DHT22;6692;50.710;7.180;2023-02-28T05:46:18;-1.50;99.90
13251;DHT22;6692;50.710;7.180;2023-02-28T05:48:18;-1.50;99.90
13251;DHT22;6692;50.710;7.180;2023-02-28T05:50:19;-1.50;99.90
13251;DHT22;6692;50.710;7.180;2023-02-28T05:52:20;-1.50;99.90
13251;DHT22;6692;50.710;7.180;2023-02-28T05:54:20;-1.60;99.90
13251;DHT22;6692;50.710;7.180;2023-02-28T05:56:21;-1.60;99.90
13251;DHT22;6692;50.710;7.180;2023-02-28T05:58:22;-1.50;99.90
13251;DHT22;6692;50.710;7.180;2023-02-28T06:00:22;-1.50;99.90
13251;DHT22;6692;50.710;7.180;2023-02-28T06:02:23;-1.50;99.90
13251;DHT22;6692;50.710;7.180;2023-02-28T06:04:24;-1.50;99.90
13251;DHT22;6692;50.710;7.180;2023-02-28T06:06:24;-1.50;99.90
13251;DHT22;6692;50.710;7.180;2023-02-28T06:08:25;-1.60;99.90
13251;DHT22;6692;50.710;7.180;2023-02-28T06:10:27;-1.60;99.90
13251;DHT22;6692;50.710;7.180;2023-02-28T06:12:27;-1.60;99.90
13251;DHT22;6692;50.710;7.180;2023-02-28T06:14:28;-1.60;99.90
13251;DHT22;6692;50.710;7.180;2023-02-28T06:16:29;-1.60;99.90
13251;DHT22;6692;50.710;7.180;2023-02-28T06:18:29;-1.60;99.90
13251;DHT22;6692;50.710;7.180;2023-02-28T06:20:30;-1.60;99.90
13251;DHT22;6692;50.710;7.180;2023-02-28T06:22:30;-1.60;99.90
13251;DHT22;6692;50.710;7.180;2023-02-28T06:24:31;-1.60;99.90
13251;DHT22;6692;50.710;7.180;2023-02-28T06:26:33;-1.60;99.90
13251;DHT22;6692;50.710;7.180;2023-02-28T06:28:33;-1.60;99.90
13251;DHT22;6692;50.710;7.180;2023-02-28T06:30:34;-1.60;99.90
13251;DHT22;6692;50.710;7.180;2023-02-28T06:32:34;-1.60;99.90
13251;DHT22;6692;50.710;7.180;2023-02-28T06:34:35;-1.50;99.90
13251;DHT22;6692;50.710;7.180;2023-02-28T06:36:36;-1.50;99.90
13251;DHT22;6692;50.710;7.180;2023-02-28T06:38:37;-1.50;99.90
13251;DHT22;6692;50.710;7.180;2023-02-28T06:40:38;-1.50;99.90
13251;DHT22;6692;50.710;7.180;2023-02-28T06:42:40;-1.50;99.90
13251;DHT22;6692;50.710;7.180;2023-02-28T06:44:41;-1.50;99.90
13251;DHT22;6692;50.710;7.180;2023-02-28T06:46:42;-1.40;99.90
13251;DHT22;6692;50.710;7.180;2023-02-28T06:48:43;-1.50;99.90
13251;DHT22;6692;50.710;7.180;2023-02-28T06:50:43;-1.40;99.90
13251;DHT22;6692;50.710;7.180;2023-02-28T06:52:44;-1.40;99.90
13251;DHT22;6692;50.710;7.180;2023-02-28T06:54:44;-1.40;99.90
13251;DHT22;6692;50.710;7.180;2023-02-28T06:56:45;-1.40;99.90
13251;DHT22;6692;50.710;7.180;2023-02-28T06:58:47;-1.40;99.90
13251;DHT22;6692;50.710;7.180;2023-02-28T07:00:50;-1.40;99.90
13251;DHT22;6692;50.710;7.180;2023-02-28T07:02:48;-1.30;99.90
13251;DHT22;6692;50.710;7.180;2023-02-28T07:04:50;-1.30;99.90
13251;DHT22;6692;50.710;7.180;2023-02-28T07:06:50;-1.30;99.90
13251;DHT22;6692;50.710;7.180;2023-02-28T07:08:51;-1.30;99.90
13251;DHT22;6692;50.710;7.180;2023-02-28T07:10:53;-1.30;99.90
13251;DHT22;6692;50.710;7.180;2023-02-28T07:12:53;-1.20;99.90
13251;DHT22;6692;50.710;7.180;2023-02-28T07:14:54;-1.20;99.90
13251;DHT22;6692;50.710;7.180;2023-02-28T07:16:55;-1.20;99.90
13251;DHT22;6692;50.710;7.180;2023-02-28T07:18:55;-1.20;99.90
13251;DHT22;6692;50.710;7.180;2023-02-28T07:20:56;-1.20;99.90
13251;DHT22;6692;50.710;7.180;2023-02-28T07:22:56;-1.20;99.90
13251;DHT22;6692;50.710;7.180;2023-02-28T07:24:57;-1.10;99.90
13251;DHT22;6692;50.710;7.180;2023-02-28T07:26:58;-1.10;99.90
13251;DHT22;6692;50.710;7.180;2023-02-28T07:28:58;-1.10;99.90
13251;DHT22;6692;50.710;7.180;2023-02-28T07:31:03;-1.00;99.90
13251;DHT22;6692;50.710;7.180;2023-02-28T07:33:03;-1.00;99.90
13251;DHT22;6692;50.710;7.180;2023-02-28T07:35:04;-1.00;99.90
13251;DHT22;6692;50.710;7.180;2023-02-28T07:37:04;-0.90;99.90
13251;DHT22;6692;50.710;7.180;2023-02-28T07:39:06;-0.90;99.90
13251;DHT22;6692;50.710;7.180;2023-02-28T07:41:07;-0.90;99.90
13251;DHT22;6692;50.710;7.180;2023-02-28T07:43:08;-0.90;99.90
13251;DHT22;6692;50.710;7.180;2023-02-28T07:45:09;-0.90;99.90
13251;DHT22;6692;50.710;7.180;2023-02-28T07:47:10;-0.80;99.90
13251;DHT22;6692;50.710;7.180;2023-02-28T07:49:10;-0.80;99.90
13251;DHT22;6692;50.710;7.180;2023-02-28T07:51:11;-0.70;99.90
13251;DHT22;6692;50.710;7.180;2023-02-28T07:53:12;-0.60;99.90
13251;DHT22;6692;50.710;7.180;2023-02-28T07:55:13;-0.60;99.90
13251;DHT22;6692;50.710;7.180;2023-02-28T07:57:14;-0.60;99.90
13251;DHT22;6692;50.710;7.180;2023-02-28T07:59:15;-0.60;99.90
13251;DHT22;6692;50.710;7.180;2023-02-28T08:01:16;-0.50;99.90
13251;DHT22;6692;50.710;7.180;2023-02-28T08:03:18;-0.50;99.90
13251;DHT22;6692;50.710;7.180;2023-02-28T08:05:18;-0.40;99.90
13251;DHT22;6692;50.710;7.180;2023-02-28T08:07:19;-0.30;99.90
13251;DHT22;6692;50.710;7.180;2023-02-28T08:09:20;-0.30;99.90
13251;DHT22;6692;50.710;7.180;2023-02-28T08:11:20;-0.30;99.90
13251;DHT22;6692;50.710;7.180;2023-02-28T08:13:21;-0.20;99.90
13251;DHT22;6692;50.710;7.180;2023-02-28T08:15:22;-0.20;99.90
13251;DHT22;6692;50.710;7.180;2023-02-28T08:17:22;-0.10;99.90
13251;DHT22;6692;50.710;7.180;2023-02-28T08:19:24;0.00;99.90
13251;DHT22;6692;50.710;7.180;2023-02-28T08:21:24;0.00;99.90
13251;DHT22;6692;50.710;7.180;2023-02-28T08:23:26;0.20;99.90
13251;DHT22;6692;50.710;7.180;2023-02-28T08:25:27;0.30;99.90
13251;DHT22;6692;50.710;7.180;2023-02-28T08:27:29;0.40;99.90
13251;DHT22;6692;50.710;7.180;2023-02-28T08:29:29;0.40;99.90
13251;DHT22;6692;50.710;7.180;2023-02-28T08:31:31;0.50;99.90
13251;DHT22;6692;50.710;7.180;2023-02-28T08:33:31;0.50;99.90
13251;DHT22;6692;50.710;7.180;2023-02-28T08:35:32;0.60;99.90
13251;DHT22;6692;50.710;7.180;2023-02-28T08:37:33;0.60;99.90
13251;DHT22;6692;50.710;7.180;2023-02-28T08:39:35;0.70;99.90
13251;DHT22;6692;50.710;7.180;2023-02-28T08:41:35;0.70;99.90
13251;DHT22;6692;50.710;7.180;2023-02-28T08:43:36;0.70;99.90
13251;DHT22;6692;50.710;7.180;2023-02-28T08:45:36;0.80;99.90
13251;DHT22;6692;50.710;7.180;2023-02-28T08:47:37;0.90;99.90
13251;DHT22;6692;50.710;7.180;2023-02-28T08:49:37;0.90;99.90
13251;DHT22;6692;50.710;7.180;2023-02-28T08:51:38;0.90;99.90
13251;DHT22;6692;50.710;7.180;2023-02-28T08:53:40;1.00;99.90
13251;DHT22;6692;50.710;7.180;2023-02-28T08:55:40;1.00;99.90
13251;DHT22;6692;50.710;7.180;2023-02-28T08:57:41;1.10;99.90
13251;DHT22;6692;50.710;7.180;2023-02-28T08:59:43;1.10;99.90
13251;DHT22;6692;50.710;7.180;2023-02-28T09:01:44;1.20;99.90
13251;DHT22;6692;50.710;7.180;2023-02-28T09:03:46;1.20;99.90
13251;DHT22;6692;50.710;7.180;2023-02-28T09:05:52;1.20;99.90
13251;DHT22;6692;50.710;7.180;2023-02-28T09:07:52;1.30;99.90
13251;DHT22;6692;50.710;7.180;2023-02-28T09:09:53;1.30;99.90
13251;DHT22;6692;50.710;7.180;2023-02-28T09:11:55;1.30;99.90
13251;DHT22;6692;50.710;7.180;2023-02-28T09:13:56;1.30;99.90
13251;DHT22;6692;50.710;7.180;2023-02-28T09:15:58;1.40;99.90
13251;DHT22;6692;50.710;7.180;2023-02-28T09:17:58;1.40;99.90
13251;DHT22;6692;50.710;7.180;2023-02-28T09:19:58;1.50;99.90
13251;DHT22;6692;50.710;7.180;2023-02-28T09:21:59;1.50;99.90
13251;DHT22;6692;50.710;7.180;2023-02-28T09:24:00;1.50;99.90
13251;DHT22;6692;50.710;7.180;2023-02-28T09:26:01;1.50;99.90
13251;DHT22;6692;50.710;7.180;2023-02-28T09:28:02;1.50;99.90
13251;DHT22;6692;50.710;7.180;2023-02-28T09:30:03;1.60;99.90
13251;DHT22;6692;50.710;7.180;2023-02-28T09:32:04;1.60;99.90
13251;DHT22;6692;50.710;7.180;2023-02-28T09:34:05;1.70;99.90
13251;DHT22;6692;50.710;7.180;2023-02-28T09:36:07;1.70;99.90
13251;DHT22;6692;50.710;7.180;2023-02-28T09:38:08;1.70;99.90
13251;DHT22;6692;50.710;7.180;2023-02-28T09:40:09;1.80;99.90
13251;DHT22;6692;50.710;7.180;2023-02-28T09:42:13;1.90;99.90
13251;DHT22;6692;50.710;7.180;2023-02-28T09:44:13;1.90;99.90
13251;DHT22;6692;50.710;7.180;2023-02-28T09:46:25;1.90;99.90
13251;DHT22;6692;50.710;7.180;2023-02-28T09:48:22;2.00;99.90
13251;DHT22;6692;50.710;7.180;2023-02-28T09:50:39;2.00;99.90
13251;DHT22;6692;50.710;7.180;2023-02-28T09:52:41;2.10;99.90
13251;DHT22;6692;50.710;7.180;2023-02-28T09:54:42;2.00;99.90
13251;DHT22;6692;50.710;7.180;2023-02-28T09:56:43;2.10;99.90
13251;DHT22;6692;50.710;7.180;2023-02-28T09:58:51;2.20;99.90
13251;DHT22;6692;50.710;7.180;2023-02-28T10:00:54;2.20;99.90
13251;DHT22;6692;50.710;7.180;2023-02-28T10:03:22;2.20;99.90
13251;DHT22;6692;50.710;7.180;2023-02-28T10:05:23;2.30;99.90
13251;DHT22;6692;50.710;7.180;2023-02-28T10:07:39;2.30;99.90
13251;DHT22;6692;50.710;7.180;2023-02-28T10:09:37;2.30;99.90
13251;DHT22;6692;50.710;7.180;2023-02-28T10:11:38;2.50;99.90
13251;DHT22;6692;50.710;7.180;2023-02-28T10:14:03;2.40;99.90
13251;DHT22;6692;50.710;7.180;2023-02-28T10:16:03;2.50;99.90
13251;DHT22;6692;50.710;7.180;2023-02-28T10:18:03;2.60;99.90
13251;DHT22;6692;50.710;7.180;2023-02-28T10:20:07;2.60;99.90
13251;DHT22;6692;50.710;7.180;2023-02-28T10:22:14;2.60;99.90
13251;DHT22;6692;50.710;7.180;2023-02-28T10:24:38;2.70;99.90
13251;DHT22;6692;50.710;7.180;2023-02-28T10:26:36;2.80;99.90
13251;DHT22;6692;50.710;7.180;2023-02-28T10:28:37;2.90;99.90
13251;DHT22;6692;50.710;7.180;2023-02-28T10:30:40;2.90;99.90
13251;DHT22;6692;50.710;7.180;2023-02-28T10:32:39;3.00;99.90
13251;DHT22;6692;50.710;7.180;2023-02-28T10:34:40;3.20;99.90
13251;DHT22;6692;50.710;7.180;2023-02-28T10:36:41;3.40;99.90
13251;DHT22;6692;50.710;7.180;2023-02-28T10:38:41;3.50;99.90
13251;DHT22;6692;50.710;7.180;2023-02-28T10:40:42;3.90;99.90
13251;DHT22;6692;50.710;7.180;2023-02-28T10:44:50;4.20;99.90
13251;DHT22;6692;50.710;7.180;2023-02-28T10:46:51;4.30;99.90
13251;DHT22;6692;50.710;7.180;2023-02-28T10:49:03;4.30;99.90
13251;DHT22;6692;50.710;7.180;2023-02-28T10:51:02;4.30;99.90
13251;DHT22;6692;50.710;7.180;2023-02-28T10:53:30;4.40;99.90
13251;DHT22;6692;50.710;7.180;2023-02-28T10:55:29;4.30;99.90
13251;DHT22;6692;50.710;7.180;2023-02-28T10:57:30;4.40;99.90
13251;DHT22;6692;50.710;7.180;2023-02-28T10:59:30;4.40;99.90
13251;DHT22;6692;50.710;7.180;2023-02-28T11:01:37;4.30;99.90
13251;DHT22;6692;50.710;7.180;2023-02-28T11:03:36;4.20;99.90
13251;DHT22;6692;50.710;7.180;2023-02-28T11:05:37;4.20;99.90
13251;DHT22;6692;50.710;7.180;2023-02-28T11:07:38;4.00;99.90
13251;DHT22;6692;50.710;7.180;2023-02-28T11:09:40;3.90;99.90
13251;DHT22;6692;50.710;7.180;2023-02-28T11:11:42;3.90;99.90
13251;DHT22;6692;50.710;7.180;2023-02-28T11:13:41;3.80;99.90
13251;DHT22;6692;50.710;7.180;2023-02-28T11:15:42;3.90;99.90
13251;DHT22;6692;50.710;7.180;2023-02-28T11:17:42;3.90;99.90
13251;DHT22;6692;50.710;7.180;2023-02-28T11:19:45;3.90;99.90
13251;DHT22;6692;50.710;7.180;2023-02-28T11:21:48;3.80;99.90
13251;DHT22;6692;50.710;7.180;2023-02-28T11:23:46;3.80;99.90
13251;DHT22;6692;50.710;7.180;2023-02-28T11:25:48;3.80;99.90
13251;DHT22;6692;50.710;7.180;2023-02-28T11:27:49;3.80;99.90
13251;DHT22;6692;50.710;7.180;2023-02-28T11:29:49;3.80;99.90
13251;DHT22;6692;50.710;7.180;2023-02-28T11:32:03;3.80;99.90
13251;DHT22;6692;50.710;7.180;2023-02-28T11:34:10;3.80;99.90
13251;DHT22;6692;50.710;7.180;2023-02-28T11:36:08;3.90;99.90
13251;DHT22;6692;50.710;7.180;2023-02-28T11:38:07;3.80;99.90
13251;DHT22;6692;50.710;7.180;2023-02-28T11:40:12;3.90;99.90
13251;DHT22;6692;50.710;7.180;2023-02-28T11:42:30;3.90;99.90
13251;DHT22;6692;50.710;7.180;2023-02-28T11:44:31;4.00;99.90
13251;DHT22;6692;50.710;7.180;2023-02-28T11:46:47;4.00;99.90
13251;DHT22;6692;50.710;7.180;2023-02-28T11:48:53;4.00;99.90
13251;DHT22;6692;50.710;7.180;2023-02-28T11:50:57;4.00;99.90
13251;DHT22;6692;50.710;7.180;2023-02-28T11:52:56;4.00;99.90
13251;DHT22;6692;50.710;7.180;2023-02-28T11:55:17;4.00;99.90
13251;DHT22;6692;50.710;7.180;2023-02-28T11:59:50;4.00;99.90
13251;DHT22;6692;50.710;7.180;2023-02-28T12:01:56;4.10;99.90
13251;DHT22;6692;50.710;7.180;2023-02-28T12:03:59;4.10;99.90
13251;DHT22;6692;50.710;7.180;2023-02-28T12:08:27;4.20;99.90
13251;DHT22;6692;50.710;7.180;2023-02-28T12:10:28;4.20;99.90
13251;DHT22;6692;50.710;7.180;2023-02-28T12:12:38;4.40;99.90
13251;DHT22;6692;50.710;7.180;2023-02-28T12:14:49;4.50;99.90
13251;DHT22;6692;50.710;7.180;2023-02-28T12:17:08;4.60;99.90
13251;DHT22;6692;50.710;7.180;2023-02-28T12:19:13;4.70;99.90
13251;DHT22;6692;50.710;7.180;2023-02-28T12:21:21;4.70;99.90
13251;DHT22;6692;50.710;7.180;2023-02-28T12:23:36;4.60;99.90
13251;DHT22;6692;50.710;7.180;2023-02-28T12:25:39;4.60;99.90
13251;DHT22;6692;50.710;7.180;2023-02-28T12:27:37;4.60;99.90
13251;DHT22;6692;50.710;7.180;2023-02-28T12:29:46;4.60;99.90
13251;DHT22;6692;50.710;7.180;2023-02-28T12:31:49;4.60;99.90
13251;DHT22;6692;50.710;7.180;2023-02-28T12:33:50;4.60;99.90
13251;DHT22;6692;50.710;7.180;2023-02-28T12:35:52;4.70;99.90
13251;DHT22;6692;50.710;7.180;2023-02-28T12:37:56;4.70;99.90
13251;DHT22;6692;50.710;7.180;2023-02-28T12:40:00;4.80;99.90
13251;DHT22;6692;50.710;7.180;2023-02-28T12:42:00;4.80;99.90
13251;DHT22;6692;50.710;7.180;2023-02-28T12:44:02;4.80;99.90
13251;DHT22;6692;50.710;7.180;2023-02-28T12:46:04;4.80;99.90
13251;DHT22;6692;50.710;7.180;2023-02-28T12:48:04;4.80;99.90
13251;DHT22;6692;50.710;7.180;2023-02-28T12:50:06;4.80;99.90
13251;DHT22;6692;50.710;7.180;2023-02-28T12:52:06;4.80;99.90
13251;DHT22;6692;50.710;7.180;2023-02-28T12:54:12;4.80;99.90
13251;DHT22;6692;50.710;7.180;2023-02-28T12:56:16;4.90;99.90
13251;DHT22;6692;50.710;7.180;2023-02-28T12:58:23;5.10;99.90
13251;DHT22;6692;50.710;7.180;2023-02-28T13:00:22;5.70;99.90
13251;DHT22;6692;50.710;7.180;2023-02-28T13:02:32;6.60;99.90
13251;DHT22;6692;50.710;7.180;2023-02-28T13:04:40;7.40;99.90
13251;DHT22;6692;50.710;7.180;2023-02-28T13:09:02;9.50;99.90
13251;DHT22;6692;50.710;7.180;2023-02-28T13:11:00;9.50;99.90
13251;DHT22;6692;50.710;7.180;2023-02-28T13:13:01;9.80;99.90
13251;DHT22;6692;50.710;7.180;2023-02-28T13:15:08;10.00;99.90
13251;DHT22;6692;50.710;7.180;2023-02-28T13:17:18;10.40;99.90
13251;DHT22;6692;50.710;7.180;2023-02-28T13:19:17;10.40;99.90
13251;DHT22;6692;50.710;7.180;2023-02-28T13:21:23;10.60;99.90
13251;DHT22;6692;50.710;7.180;2023-02-28T13:24:00;10.80;99.90
13251;DHT22;6692;50.710;7.180;2023-02-28T13:26:00;10.90;99.90
13251;DHT22;6692;50.710;7.180;2023-02-28T13:28:01;11.00;99.90